Alyeska Resort
Max's Hourly Weather Roundup
ALYESKA_MAX 11/23/2014
Click Here for Graph

        DATE  TIME   Air  Wind  Wind  Wind  BATT   Rel
                    Temp   Spd   Dir  Gust  Volt  Hum%
                      F   MPH   AVG   MPH   AVG   AVG

  11/23/2014 01:00    28     6   127    13 12.67   100
  11/22/2014 24:00    29     6   120    15 12.67   100
  11/22/2014 23:00    28     8   124    18 12.67   100
  11/22/2014 22:00    28     8   121    22 12.67   100
  11/22/2014 21:00    28     9   110    20 12.67   100
  11/22/2014 20:00    28    11   118    25 12.67   100
  11/22/2014 19:00    27     5   120    15 12.67   100
  11/22/2014 18:00    27     7   116    22 12.67   100
  11/22/2014 17:00    28     5   152    17 12.67   100
  11/22/2014 16:00    27     3   219    12 12.69   100
  11/22/2014 15:00    28     9    98    24 12.74   100
  11/22/2014 14:00    27    10   211    23 12.74   100
  11/22/2014 13:00    29     7   138    20 12.71    97
  11/22/2014 12:00    29     7   234    19 12.67    95
  11/22/2014 11:00    28    10    97    27 12.67    99
  11/22/2014 10:00    28    14    62    27 12.67    98
  11/22/2014 09:00    29    19    50    28 12.67    91
  11/22/2014 08:00    29    14    65    28 12.67    87
  11/22/2014 07:00    28     7    80    22 12.68    93
  11/22/2014 06:00    29     5   129    18 12.68    96
  11/22/2014 05:00    29     4   170    15 12.68    95
  11/22/2014 04:00    29     6   142    22 12.68    96
  11/22/2014 03:00    29    11    99    33 12.68    99
  11/22/2014 02:00    28     8    82    27 12.68   100


Click Here for Graph